sensor_id;sensor_type;location;lat;lon;timestamp;P1;durP1;ratioP1;P2;durP2;ratioP2
10088;SDS011;51898;49.864;8.550;2023-04-24T00:02:31;3.20;;;2.33;;
10088;SDS011;51898;49.864;8.550;2023-04-24T00:05:34;2.30;;;2.10;;
10088;SDS011;51898;49.864;8.550;2023-04-24T00:08:35;2.57;;;2.23;;
10088;SDS011;51898;49.864;8.550;2023-04-24T00:11:37;3.40;;;1.93;;
10088;SDS011;51898;49.864;8.550;2023-04-24T00:14:39;2.20;;;2.00;;
10088;SDS011;51898;49.864;8.550;2023-04-24T00:17:41;3.10;;;2.20;;
10088;SDS011;51898;49.864;8.550;2023-04-24T00:20:42;5.53;;;2.37;;
10088;SDS011;51898;49.864;8.550;2023-04-24T00:23:44;3.23;;;1.67;;
10088;SDS011;51898;49.864;8.550;2023-04-24T00:26:46;2.50;;;1.77;;
10088;SDS011;51898;49.864;8.550;2023-04-24T00:29:48;2.70;;;1.73;;
10088;SDS011;51898;49.864;8.550;2023-04-24T00:32:50;3.87;;;1.60;;
10088;SDS011;51898;49.864;8.550;2023-04-24T00:35:52;4.50;;;1.63;;
10088;SDS011;51898;49.864;8.550;2023-04-24T00:38:54;1.80;;;1.70;;
10088;SDS011;51898;49.864;8.550;2023-04-24T00:41:56;2.37;;;1.97;;
10088;SDS011;51898;49.864;8.550;2023-04-24T00:44:58;1.73;;;1.33;;
10088;SDS011;51898;49.864;8.550;2023-04-24T00:48:00;2.13;;;1.90;;
10088;SDS011;51898;49.864;8.550;2023-04-24T00:51:03;5.63;;;1.70;;
10088;SDS011;51898;49.864;8.550;2023-04-24T00:54:05;1.60;;;1.50;;
10088;SDS011;51898;49.864;8.550;2023-04-24T00:57:06;3.23;;;2.50;;
10088;SDS011;51898;49.864;8.550;2023-04-24T01:00:08;3.00;;;1.70;;
10088;SDS011;51898;49.864;8.550;2023-04-24T01:03:13;4.90;;;2.13;;
10088;SDS011;51898;49.864;8.550;2023-04-24T01:06:16;2.57;;;2.00;;
10088;SDS011;51898;49.864;8.550;2023-04-24T01:09:19;2.70;;;2.00;;
10088;SDS011;51898;49.864;8.550;2023-04-24T01:12:22;2.87;;;1.63;;
10088;SDS011;51898;49.864;8.550;2023-04-24T01:15:24;2.20;;;1.73;;
10088;SDS011;51898;49.864;8.550;2023-04-24T01:18:26;3.83;;;1.93;;
10088;SDS011;51898;49.864;8.550;2023-04-24T01:21:28;1.70;;;1.60;;
10088;SDS011;51898;49.864;8.550;2023-04-24T01:24:34;3.50;;;1.80;;
10088;SDS011;51898;49.864;8.550;2023-04-24T01:27:35;1.93;;;1.53;;
10088;SDS011;51898;49.864;8.550;2023-04-24T01:30:37;2.53;;;1.83;;
10088;SDS011;51898;49.864;8.550;2023-04-24T01:33:38;3.37;;;1.50;;
10088;SDS011;51898;49.864;8.550;2023-04-24T01:36:41;7.23;;;1.67;;
10088;SDS011;51898;49.864;8.550;2023-04-24T01:39:46;2.17;;;1.50;;
10088;SDS011;51898;49.864;8.550;2023-04-24T01:42:48;3.40;;;1.80;;
10088;SDS011;51898;49.864;8.550;2023-04-24T01:45:50;3.33;;;2.00;;
10088;SDS011;51898;49.864;8.550;2023-04-24T01:48:51;4.97;;;2.13;;
10088;SDS011;51898;49.864;8.550;2023-04-24T01:51:53;3.23;;;2.00;;
10088;SDS011;51898;49.864;8.550;2023-04-24T01:54:55;3.57;;;1.77;;
10088;SDS011;51898;49.864;8.550;2023-04-24T01:57:56;3.67;;;2.07;;
10088;SDS011;51898;49.864;8.550;2023-04-24T02:01:00;3.37;;;2.00;;
10088;SDS011;51898;49.864;8.550;2023-04-24T02:04:02;3.67;;;2.03;;
10088;SDS011;51898;49.864;8.550;2023-04-24T02:07:06;2.10;;;1.80;;
10088;SDS011;51898;49.864;8.550;2023-04-24T02:10:07;2.53;;;1.70;;
10088;SDS011;51898;49.864;8.550;2023-04-24T02:13:10;2.30;;;1.87;;
10088;SDS011;51898;49.864;8.550;2023-04-24T02:16:11;1.67;;;1.47;;
10088;SDS011;51898;49.864;8.550;2023-04-24T02:19:13;2.37;;;1.50;;
10088;SDS011;51898;49.864;8.550;2023-04-24T02:22:15;1.50;;;1.40;;
10088;SDS011;51898;49.864;8.550;2023-04-24T02:25:16;3.37;;;2.13;;
10088;SDS011;51898;49.864;8.550;2023-04-24T02:28:18;1.87;;;1.77;;
10088;SDS011;51898;49.864;8.550;2023-04-24T02:31:20;8.63;;;2.17;;
10088;SDS011;51898;49.864;8.550;2023-04-24T02:34:22;3.80;;;1.60;;
10088;SDS011;51898;49.864;8.550;2023-04-24T02:37:24;3.13;;;2.00;;
10088;SDS011;51898;49.864;8.550;2023-04-24T02:40:25;2.97;;;2.03;;
10088;SDS011;51898;49.864;8.550;2023-04-24T02:43:27;7.10;;;2.90;;
10088;SDS011;51898;49.864;8.550;2023-04-24T02:46:29;2.27;;;1.90;;
10088;SDS011;51898;49.864;8.550;2023-04-24T02:49:31;3.37;;;1.90;;
10088;SDS011;51898;49.864;8.550;2023-04-24T02:52:33;2.70;;;1.80;;
10088;SDS011;51898;49.864;8.550;2023-04-24T02:55:34;3.17;;;1.90;;
10088;SDS011;51898;49.864;8.550;2023-04-24T02:58:36;5.10;;;2.40;;
10088;SDS011;51898;49.864;8.550;2023-04-24T03:01:38;3.77;;;2.30;;
10088;SDS011;51898;49.864;8.550;2023-04-24T03:04:40;3.10;;;2.00;;
10088;SDS011;51898;49.864;8.550;2023-04-24T03:07:44;2.27;;;1.97;;
10088;SDS011;51898;49.864;8.550;2023-04-24T03:10:46;3.30;;;1.93;;
10088;SDS011;51898;49.864;8.550;2023-04-24T03:13:48;2.00;;;1.77;;
10088;SDS011;51898;49.864;8.550;2023-04-24T03:16:50;5.20;;;1.60;;
10088;SDS011;51898;49.864;8.550;2023-04-24T03:19:51;2.77;;;1.67;;
10088;SDS011;51898;49.864;8.550;2023-04-24T03:22:53;3.80;;;1.60;;
10088;SDS011;51898;49.864;8.550;2023-04-24T03:25:55;3.90;;;1.90;;
10088;SDS011;51898;49.864;8.550;2023-04-24T03:28:57;2.03;;;1.80;;
10088;SDS011;51898;49.864;8.550;2023-04-24T03:31:58;3.40;;;1.70;;
10088;SDS011;51898;49.864;8.550;2023-04-24T03:35:00;3.10;;;2.10;;
10088;SDS011;51898;49.864;8.550;2023-04-24T03:38:02;3.47;;;1.83;;
10088;SDS011;51898;49.864;8.550;2023-04-24T03:41:05;2.17;;;1.97;;
10088;SDS011;51898;49.864;8.550;2023-04-24T03:44:07;1.60;;;1.33;;
10088;SDS011;51898;49.864;8.550;2023-04-24T03:47:08;2.23;;;1.83;;
10088;SDS011;51898;49.864;8.550;2023-04-24T03:50:10;2.53;;;1.90;;
10088;SDS011;51898;49.864;8.550;2023-04-24T03:53:13;4.73;;;2.43;;
10088;SDS011;51898;49.864;8.550;2023-04-24T03:56:14;1.90;;;1.80;;
10088;SDS011;51898;49.864;8.550;2023-04-24T03:59:16;2.50;;;2.30;;
10088;SDS011;51898;49.864;8.550;2023-04-24T04:02:18;2.03;;;1.83;;
10088;SDS011;51898;49.864;8.550;2023-04-24T04:05:19;5.33;;;2.20;;
10088;SDS011;51898;49.864;8.550;2023-04-24T04:08:21;2.20;;;2.00;;
10088;SDS011;51898;49.864;8.550;2023-04-24T04:11:23;3.67;;;2.80;;
10088;SDS011;51898;49.864;8.550;2023-04-24T04:14:25;2.60;;;2.40;;
10088;SDS011;51898;49.864;8.550;2023-04-24T04:17:27;3.13;;;2.87;;
10088;SDS011;51898;49.864;8.550;2023-04-24T04:20:28;3.60;;;2.63;;
10088;SDS011;51898;49.864;8.550;2023-04-24T04:23:31;3.23;;;2.83;;
10088;SDS011;51898;49.864;8.550;2023-04-24T04:26:33;4.07;;;3.30;;
10088;SDS011;51898;49.864;8.550;2023-04-24T04:29:36;3.50;;;3.20;;
10088;SDS011;51898;49.864;8.550;2023-04-24T04:32:38;3.30;;;3.10;;
10088;SDS011;51898;49.864;8.550;2023-04-24T04:35:40;3.37;;;3.07;;
10088;SDS011;51898;49.864;8.550;2023-04-24T04:38:42;3.20;;;2.90;;
10088;SDS011;51898;49.864;8.550;2023-04-24T04:41:44;4.03;;;3.20;;
10088;SDS011;51898;49.864;8.550;2023-04-24T04:44:50;5.33;;;3.20;;
10088;SDS011;51898;49.864;8.550;2023-04-24T04:47:51;4.20;;;3.10;;
10088;SDS011;51898;49.864;8.550;2023-04-24T04:50:53;4.13;;;3.70;;
10088;SDS011;51898;49.864;8.550;2023-04-24T04:53:55;3.63;;;3.33;;
10088;SDS011;51898;49.864;8.550;2023-04-24T04:56:57;3.87;;;3.50;;
10088;SDS011;51898;49.864;8.550;2023-04-24T04:59:59;3.50;;;3.20;;
10088;SDS011;51898;49.864;8.550;2023-04-24T05:03:01;3.60;;;3.30;;
10088;SDS011;51898;49.864;8.550;2023-04-24T05:06:20;3.50;;;3.20;;
10088;SDS011;51898;49.864;8.550;2023-04-24T05:09:24;4.80;;;3.70;;
10088;SDS011;51898;49.864;8.550;2023-04-24T05:12:28;5.73;;;3.30;;
10088;SDS011;51898;49.864;8.550;2023-04-24T05:15:30;4.53;;;4.00;;
10088;SDS011;51898;49.864;8.550;2023-04-24T05:18:31;5.10;;;4.00;;
10088;SDS011;51898;49.864;8.550;2023-04-24T05:21:33;5.47;;;4.10;;
10088;SDS011;51898;49.864;8.550;2023-04-24T05:24:35;3.70;;;3.40;;
10088;SDS011;51898;49.864;8.550;2023-04-24T05:27:37;5.07;;;4.03;;
10088;SDS011;51898;49.864;8.550;2023-04-24T05:30:39;4.40;;;4.00;;
10088;SDS011;51898;49.864;8.550;2023-04-24T05:33:41;6.23;;;3.67;;
10088;SDS011;51898;49.864;8.550;2023-04-24T05:36:43;5.40;;;4.07;;
10088;SDS011;51898;49.864;8.550;2023-04-24T05:39:44;6.00;;;3.97;;
10088;SDS011;51898;49.864;8.550;2023-04-24T05:42:46;5.67;;;4.53;;
10088;SDS011;51898;49.864;8.550;2023-04-24T05:45:48;4.37;;;4.00;;
10088;SDS011;51898;49.864;8.550;2023-04-24T05:48:49;4.90;;;4.50;;
10088;SDS011;51898;49.864;8.550;2023-04-24T05:51:51;5.40;;;4.90;;
10088;SDS011;51898;49.864;8.550;2023-04-24T05:54:53;5.00;;;4.27;;
10088;SDS011;51898;49.864;8.550;2023-04-24T05:57:54;5.83;;;5.10;;
10088;SDS011;51898;49.864;8.550;2023-04-24T06:00:56;4.60;;;4.20;;
10088;SDS011;51898;49.864;8.550;2023-04-24T06:03:59;5.40;;;4.90;;
10088;SDS011;51898;49.864;8.550;2023-04-24T06:07:02;5.57;;;4.70;;
10088;SDS011;51898;49.864;8.550;2023-04-24T06:10:04;5.10;;;4.13;;
10088;SDS011;51898;49.864;8.550;2023-04-24T06:13:06;5.83;;;4.67;;
10088;SDS011;51898;49.864;8.550;2023-04-24T06:16:07;6.40;;;4.50;;
10088;SDS011;51898;49.864;8.550;2023-04-24T06:19:09;6.77;;;4.47;;
10088;SDS011;51898;49.864;8.550;2023-04-24T06:22:11;5.37;;;4.83;;
10088;SDS011;51898;49.864;8.550;2023-04-24T06:25:13;5.10;;;4.60;;
10088;SDS011;51898;49.864;8.550;2023-04-24T06:28:14;7.13;;;4.37;;
10088;SDS011;51898;49.864;8.550;2023-04-24T06:31:16;7.13;;;5.70;;
10088;SDS011;51898;49.864;8.550;2023-04-24T06:34:18;6.70;;;5.20;;
10088;SDS011;51898;49.864;8.550;2023-04-24T06:37:19;5.93;;;5.13;;
10088;SDS011;51898;49.864;8.550;2023-04-24T06:40:21;5.27;;;4.70;;
10088;SDS011;51898;49.864;8.550;2023-04-24T06:43:23;8.83;;;5.47;;
10088;SDS011;51898;49.864;8.550;2023-04-24T06:46:25;7.30;;;5.90;;
10088;SDS011;51898;49.864;8.550;2023-04-24T06:49:28;6.27;;;5.50;;
10088;SDS011;51898;49.864;8.550;2023-04-24T06:52:30;8.57;;;5.77;;
10088;SDS011;51898;49.864;8.550;2023-04-24T06:55:35;10.00;;;6.37;;
10088;SDS011;51898;49.864;8.550;2023-04-24T06:58:37;8.50;;;6.13;;
10088;SDS011;51898;49.864;8.550;2023-04-24T07:01:38;6.47;;;5.63;;
10088;SDS011;51898;49.864;8.550;2023-04-24T07:04:40;7.17;;;6.10;;
10088;SDS011;51898;49.864;8.550;2023-04-24T07:07:43;7.57;;;6.63;;
10088;SDS011;51898;49.864;8.550;2023-04-24T07:10:45;6.50;;;5.80;;
10088;SDS011;51898;49.864;8.550;2023-04-24T07:13:47;6.77;;;6.07;;
10088;SDS011;51898;49.864;8.550;2023-04-24T07:16:49;6.30;;;5.27;;
10088;SDS011;51898;49.864;8.550;2023-04-24T07:19:50;6.30;;;5.70;;
10088;SDS011;51898;49.864;8.550;2023-04-24T07:22:52;5.30;;;4.27;;
10088;SDS011;51898;49.864;8.550;2023-04-24T07:25:55;5.30;;;3.83;;
10088;SDS011;51898;49.864;8.550;2023-04-24T07:28:56;4.57;;;4.20;;
10088;SDS011;51898;49.864;8.550;2023-04-24T07:31:58;4.70;;;4.30;;
10088;SDS011;51898;49.864;8.550;2023-04-24T07:35:03;6.03;;;3.60;;
10088;SDS011;51898;49.864;8.550;2023-04-24T07:38:05;5.30;;;3.23;;
10088;SDS011;51898;49.864;8.550;2023-04-24T07:41:07;3.57;;;3.27;;
10088;SDS011;51898;49.864;8.550;2023-04-24T07:44:09;3.50;;;3.17;;
10088;SDS011;51898;49.864;8.550;2023-04-24T07:47:11;5.23;;;3.30;;
10088;SDS011;51898;49.864;8.550;2023-04-24T07:50:15;7.37;;;3.40;;
10088;SDS011;51898;49.864;8.550;2023-04-24T07:53:16;3.27;;;3.07;;
10088;SDS011;51898;49.864;8.550;2023-04-24T07:56:18;3.90;;;3.00;;
10088;SDS011;51898;49.864;8.550;2023-04-24T07:59:20;2.73;;;2.53;;
10088;SDS011;51898;49.864;8.550;2023-04-24T08:02:22;2.77;;;2.57;;
10088;SDS011;51898;49.864;8.550;2023-04-24T08:05:28;5.13;;;3.40;;
10088;SDS011;51898;49.864;8.550;2023-04-24T08:08:30;2.30;;;2.10;;
10088;SDS011;51898;49.864;8.550;2023-04-24T08:11:31;3.10;;;2.63;;
10088;SDS011;51898;49.864;8.550;2023-04-24T08:14:33;2.70;;;2.50;;
10088;SDS011;51898;49.864;8.550;2023-04-24T08:17:36;3.67;;;2.80;;
10088;SDS011;51898;49.864;8.550;2023-04-24T08:20:38;2.60;;;2.40;;
10088;SDS011;51898;49.864;8.550;2023-04-24T08:23:40;3.10;;;2.90;;
10088;SDS011;51898;49.864;8.550;2023-04-24T08:26:41;3.83;;;3.40;;
10088;SDS011;51898;49.864;8.550;2023-04-24T08:29:43;5.23;;;3.67;;
10088;SDS011;51898;49.864;8.550;2023-04-24T08:32:45;3.87;;;3.27;;
10088;SDS011;51898;49.864;8.550;2023-04-24T08:35:47;3.63;;;2.87;;
10088;SDS011;51898;49.864;8.550;2023-04-24T08:38:49;3.57;;;3.27;;
10088;SDS011;51898;49.864;8.550;2023-04-24T08:41:51;3.87;;;3.47;;
10088;SDS011;51898;49.864;8.550;2023-04-24T08:44:54;3.30;;;3.00;;
10088;SDS011;51898;49.864;8.550;2023-04-24T08:47:56;4.00;;;3.07;;
10088;SDS011;51898;49.864;8.550;2023-04-24T08:50:59;4.77;;;3.00;;
10088;SDS011;51898;49.864;8.550;2023-04-24T08:54:02;3.50;;;3.20;;
10088;SDS011;51898;49.864;8.550;2023-04-24T08:57:05;6.60;;;3.40;;
10088;SDS011;51898;49.864;8.550;2023-04-24T09:00:09;4.50;;;3.60;;
10088;SDS011;51898;49.864;8.550;2023-04-24T09:03:15;3.90;;;3.50;;
10088;SDS011;51898;49.864;8.550;2023-04-24T09:06:18;3.93;;;3.63;;
10088;SDS011;51898;49.864;8.550;2023-04-24T09:09:23;3.47;;;3.17;;
10088;SDS011;51898;49.864;8.550;2023-04-24T09:12:25;3.23;;;2.90;;
10088;SDS011;51898;49.864;8.550;2023-04-24T09:15:27;7.87;;;3.20;;
10088;SDS011;51898;49.864;8.550;2023-04-24T09:18:30;3.00;;;2.77;;
10088;SDS011;51898;49.864;8.550;2023-04-24T09:21:32;3.60;;;3.27;;
10088;SDS011;51898;49.864;8.550;2023-04-24T09:24:35;3.90;;;3.47;;
10088;SDS011;51898;49.864;8.550;2023-04-24T09:27:37;3.17;;;2.87;;
10088;SDS011;51898;49.864;8.550;2023-04-24T09:30:44;3.93;;;3.37;;
10088;SDS011;51898;49.864;8.550;2023-04-24T09:33:56;2.67;;;2.47;;
10088;SDS011;51898;49.864;8.550;2023-04-24T09:37:02;3.80;;;2.97;;
10088;SDS011;51898;49.864;8.550;2023-04-24T09:40:19;3.80;;;3.40;;
10088;SDS011;51898;49.864;8.550;2023-04-24T09:43:23;3.53;;;3.13;;
10088;SDS011;51898;49.864;8.550;2023-04-24T09:46:31;3.57;;;2.33;;
10088;SDS011;51898;49.864;8.550;2023-04-24T09:49:34;3.57;;;3.10;;
10088;SDS011;51898;49.864;8.550;2023-04-24T09:52:45;3.47;;;3.20;;
10088;SDS011;51898;49.864;8.550;2023-04-24T09:55:49;3.43;;;2.53;;
10088;SDS011;51898;49.864;8.550;2023-04-24T09:58:51;2.93;;;2.67;;
10088;SDS011;51898;49.864;8.550;2023-04-24T10:01:53;2.53;;;2.33;;
10088;SDS011;51898;49.864;8.550;2023-04-24T10:04:55;5.23;;;2.80;;
10088;SDS011;51898;49.864;8.550;2023-04-24T10:08:03;3.00;;;2.60;;
10088;SDS011;51898;49.864;8.550;2023-04-24T10:11:09;3.90;;;3.00;;
10088;SDS011;51898;49.864;8.550;2023-04-24T10:14:16;3.87;;;3.57;;
10088;SDS011;51898;49.864;8.550;2023-04-24T10:17:20;3.57;;;3.27;;
10088;SDS011;51898;49.864;8.550;2023-04-24T10:20:23;3.83;;;3.53;;
10088;SDS011;51898;49.864;8.550;2023-04-24T10:23:27;7.00;;;5.57;;
10088;SDS011;51898;49.864;8.550;2023-04-24T10:26:29;3.40;;;3.10;;
10088;SDS011;51898;49.864;8.550;2023-04-24T10:29:32;4.50;;;3.13;;
10088;SDS011;51898;49.864;8.550;2023-04-24T10:32:36;3.03;;;2.83;;
10088;SDS011;51898;49.864;8.550;2023-04-24T10:35:40;3.03;;;2.83;;
10088;SDS011;51898;49.864;8.550;2023-04-24T10:38:46;4.10;;;3.00;;
10088;SDS011;51898;49.864;8.550;2023-04-24T10:41:49;9.50;;;3.27;;
10088;SDS011;51898;49.864;8.550;2023-04-24T10:44:51;3.33;;;3.03;;
10088;SDS011;51898;49.864;8.550;2023-04-24T10:47:56;5.80;;;2.80;;
10088;SDS011;51898;49.864;8.550;2023-04-24T10:51:12;3.40;;;3.10;;
10088;SDS011;51898;49.864;8.550;2023-04-24T10:57:36;3.23;;;2.93;;
10088;SDS011;51898;49.864;8.550;2023-04-24T11:00:40;3.93;;;3.63;;
10088;SDS011;51898;49.864;8.550;2023-04-24T11:03:50;2.63;;;2.43;;
10088;SDS011;51898;49.864;8.550;2023-04-24T11:06:56;3.20;;;2.70;;
10088;SDS011;51898;49.864;8.550;2023-04-24T11:09:58;3.20;;;2.97;;
10088;SDS011;51898;49.864;8.550;2023-04-24T11:13:02;3.40;;;3.10;;
10088;SDS011;51898;49.864;8.550;2023-04-24T11:19:25;3.57;;;3.27;;
10088;SDS011;51898;49.864;8.550;2023-04-24T11:22:27;4.33;;;3.60;;
10088;SDS011;51898;49.864;8.550;2023-04-24T11:25:35;5.20;;;4.63;;
10088;SDS011;51898;49.864;8.550;2023-04-24T11:28:37;5.17;;;4.67;;
10088;SDS011;51898;49.864;8.550;2023-04-24T11:31:44;4.40;;;4.00;;
10088;SDS011;51898;49.864;8.550;2023-04-24T11:34:53;8.80;;;4.70;;
10088;SDS011;51898;49.864;8.550;2023-04-24T11:37:59;3.93;;;3.53;;
10088;SDS011;51898;49.864;8.550;2023-04-24T11:41:23;4.23;;;3.87;;
10088;SDS011;51898;49.864;8.550;2023-04-24T11:44:26;5.03;;;4.07;;
10088;SDS011;51898;49.864;8.550;2023-04-24T11:47:29;4.47;;;4.07;;
10088;SDS011;51898;49.864;8.550;2023-04-24T11:50:32;4.60;;;3.97;;
10088;SDS011;51898;49.864;8.550;2023-04-24T11:53:34;3.23;;;3.03;;
10088;SDS011;51898;49.864;8.550;2023-04-24T11:56:37;5.90;;;4.20;;
10088;SDS011;51898;49.864;8.550;2023-04-24T11:59:40;3.83;;;3.40;;
10088;SDS011;51898;49.864;8.550;2023-04-24T12:02:41;4.30;;;3.10;;
10088;SDS011;51898;49.864;8.550;2023-04-24T12:05:43;2.90;;;2.70;;
10088;SDS011;51898;49.864;8.550;2023-04-24T12:08:46;3.47;;;2.80;;
10088;SDS011;51898;49.864;8.550;2023-04-24T12:11:52;4.60;;;3.37;;
10088;SDS011;51898;49.864;8.550;2023-04-24T12:14:55;2.60;;;2.40;;
10088;SDS011;51898;49.864;8.550;2023-04-24T12:17:59;3.73;;;3.07;;
10088;SDS011;51898;49.864;8.550;2023-04-24T12:21:20;4.23;;;3.80;;
10088;SDS011;51898;49.864;8.550;2023-04-24T12:24:28;4.27;;;3.87;;
10088;SDS011;51898;49.864;8.550;2023-04-24T12:27:30;4.30;;;4.00;;
10088;SDS011;51898;49.864;8.550;2023-04-24T12:30:34;6.17;;;4.73;;
10088;SDS011;51898;49.864;8.550;2023-04-24T12:33:45;5.50;;;5.00;;
10088;SDS011;51898;49.864;8.550;2023-04-24T12:36:47;5.23;;;4.47;;
10088;SDS011;51898;49.864;8.550;2023-04-24T12:46:16;4.53;;;4.07;;
10088;SDS011;51898;49.864;8.550;2023-04-24T12:49:20;4.10;;;3.50;;
10088;SDS011;51898;49.864;8.550;2023-04-24T12:52:22;6.10;;;4.20;;
10088;SDS011;51898;49.864;8.550;2023-04-24T12:55:25;5.93;;;4.20;;
10088;SDS011;51898;49.864;8.550;2023-04-24T12:58:26;7.97;;;4.83;;
10088;SDS011;51898;49.864;8.550;2023-04-24T13:01:28;4.53;;;4.10;;
10088;SDS011;51898;49.864;8.550;2023-04-24T13:04:30;4.27;;;3.83;;
10088;SDS011;51898;49.864;8.550;2023-04-24T13:07:32;4.10;;;3.57;;
10088;SDS011;51898;49.864;8.550;2023-04-24T13:10:34;6.90;;;4.20;;
10088;SDS011;51898;49.864;8.550;2023-04-24T13:13:36;4.80;;;4.30;;
10088;SDS011;51898;49.864;8.550;2023-04-24T13:16:37;4.37;;;3.97;;
10088;SDS011;51898;49.864;8.550;2023-04-24T13:19:40;5.33;;;4.73;;
10088;SDS011;51898;49.864;8.550;2023-04-24T13:22:43;5.60;;;4.60;;
10088;SDS011;51898;49.864;8.550;2023-04-24T13:25:48;5.53;;;4.20;;
10088;SDS011;51898;49.864;8.550;2023-04-24T13:28:50;4.70;;;4.00;;
10088;SDS011;51898;49.864;8.550;2023-04-24T13:31:52;5.80;;;4.10;;
10088;SDS011;51898;49.864;8.550;2023-04-24T13:34:58;4.27;;;3.77;;
10088;SDS011;51898;49.864;8.550;2023-04-24T13:37:59;6.07;;;4.27;;
10088;SDS011;51898;49.864;8.550;2023-04-24T13:41:02;4.30;;;3.90;;
10088;SDS011;51898;49.864;8.550;2023-04-24T13:44:04;4.47;;;3.80;;
10088;SDS011;51898;49.864;8.550;2023-04-24T13:47:07;4.63;;;3.87;;
10088;SDS011;51898;49.864;8.550;2023-04-24T13:50:08;3.87;;;3.53;;
10088;SDS011;51898;49.864;8.550;2023-04-24T13:53:10;7.40;;;4.33;;
10088;SDS011;51898;49.864;8.550;2023-04-24T13:56:12;6.33;;;4.93;;
10088;SDS011;51898;49.864;8.550;2023-04-24T13:59:15;5.70;;;4.53;;
10088;SDS011;51898;49.864;8.550;2023-04-24T14:02:16;5.90;;;3.67;;
10088;SDS011;51898;49.864;8.550;2023-04-24T14:05:18;6.00;;;3.63;;
10088;SDS011;51898;49.864;8.550;2023-04-24T14:08:22;3.90;;;3.50;;
10088;SDS011;51898;49.864;8.550;2023-04-24T14:11:23;4.33;;;3.90;;
10088;SDS011;51898;49.864;8.550;2023-04-24T14:14:25;5.97;;;3.90;;
10088;SDS011;51898;49.864;8.550;2023-04-24T14:17:27;4.70;;;3.80;;
10088;SDS011;51898;49.864;8.550;2023-04-24T14:20:29;4.97;;;4.47;;
10088;SDS011;51898;49.864;8.550;2023-04-24T14:23:31;4.23;;;3.87;;
10088;SDS011;51898;49.864;8.550;2023-04-24T14:26:33;6.40;;;3.60;;
10088;SDS011;51898;49.864;8.550;2023-04-24T14:29:34;4.60;;;3.83;;
10088;SDS011;51898;49.864;8.550;2023-04-24T14:32:37;6.33;;;3.53;;
10088;SDS011;51898;49.864;8.550;2023-04-24T14:35:40;4.30;;;3.70;;
10088;SDS011;51898;49.864;8.550;2023-04-24T14:38:43;5.20;;;3.80;;
10088;SDS011;51898;49.864;8.550;2023-04-24T14:41:44;6.00;;;3.70;;
10088;SDS011;51898;49.864;8.550;2023-04-24T14:44:46;5.10;;;3.97;;
10088;SDS011;51898;49.864;8.550;2023-04-24T14:47:48;7.10;;;3.97;;
10088;SDS011;51898;49.864;8.550;2023-04-24T14:50:50;3.30;;;3.10;;
10088;SDS011;51898;49.864;8.550;2023-04-24T14:53:52;5.40;;;3.93;;
10088;SDS011;51898;49.864;8.550;2023-04-24T14:56:54;5.17;;;3.93;;
10088;SDS011;51898;49.864;8.550;2023-04-24T14:59:57;4.80;;;4.00;;
10088;SDS011;51898;49.864;8.550;2023-04-24T15:03:00;4.97;;;3.63;;
10088;SDS011;51898;49.864;8.550;2023-04-24T15:06:03;4.43;;;4.03;;
10088;SDS011;51898;49.864;8.550;2023-04-24T15:09:04;4.93;;;3.87;;
10088;SDS011;51898;49.864;8.550;2023-04-24T15:12:06;3.70;;;3.40;;
10088;SDS011;51898;49.864;8.550;2023-04-24T15:15:08;4.37;;;3.60;;
10088;SDS011;51898;49.864;8.550;2023-04-24T15:18:10;4.17;;;3.73;;
10088;SDS011;51898;49.864;8.550;2023-04-24T15:21:12;4.03;;;3.63;;
10088;SDS011;51898;49.864;8.550;2023-04-24T15:24:14;4.37;;;3.57;;
10088;SDS011;51898;49.864;8.550;2023-04-24T15:27:16;5.43;;;3.60;;
10088;SDS011;51898;49.864;8.550;2023-04-24T15:30:18;4.00;;;3.70;;
10088;SDS011;51898;49.864;8.550;2023-04-24T15:33:19;4.83;;;3.80;;
10088;SDS011;51898;49.864;8.550;2023-04-24T15:36:22;5.20;;;4.70;;
10088;SDS011;51898;49.864;8.550;2023-04-24T15:39:24;4.30;;;3.90;;
10088;SDS011;51898;49.864;8.550;2023-04-24T15:42:26;4.60;;;4.20;;
10088;SDS011;51898;49.864;8.550;2023-04-24T15:45:28;4.00;;;3.70;;
10088;SDS011;51898;49.864;8.550;2023-04-24T15:48:30;4.23;;;3.83;;
10088;SDS011;51898;49.864;8.550;2023-04-24T15:51:32;4.70;;;3.97;;
10088;SDS011;51898;49.864;8.550;2023-04-24T15:54:33;4.20;;;3.80;;
10088;SDS011;51898;49.864;8.550;2023-04-24T15:57:35;6.13;;;4.47;;
10088;SDS011;51898;49.864;8.550;2023-04-24T16:00:37;4.83;;;4.20;;
10088;SDS011;51898;49.864;8.550;2023-04-24T16:03:39;4.53;;;4.10;;
10088;SDS011;51898;49.864;8.550;2023-04-24T16:06:40;4.60;;;4.13;;
10088;SDS011;51898;49.864;8.550;2023-04-24T16:09:42;4.40;;;3.97;;
10088;SDS011;51898;49.864;8.550;2023-04-24T16:12:44;6.83;;;4.50;;
10088;SDS011;51898;49.864;8.550;2023-04-24T16:15:46;5.73;;;4.83;;
10088;SDS011;51898;49.864;8.550;2023-04-24T16:18:48;5.03;;;4.60;;
10088;SDS011;51898;49.864;8.550;2023-04-24T16:21:50;4.67;;;4.27;;
10088;SDS011;51898;49.864;8.550;2023-04-24T16:24:54;4.60;;;4.20;;
10088;SDS011;51898;49.864;8.550;2023-04-24T16:27:57;5.63;;;5.13;;
10088;SDS011;51898;49.864;8.550;2023-04-24T16:30:58;5.23;;;4.70;;
10088;SDS011;51898;49.864;8.550;2023-04-24T16:34:00;4.57;;;4.10;;
10088;SDS011;51898;49.864;8.550;2023-04-24T16:37:02;5.03;;;4.60;;
10088;SDS011;51898;49.864;8.550;2023-04-24T16:40:05;4.97;;;4.40;;
10088;SDS011;51898;49.864;8.550;2023-04-24T16:43:10;6.00;;;4.60;;
10088;SDS011;51898;49.864;8.550;2023-04-24T16:46:12;5.77;;;5.03;;
10088;SDS011;51898;49.864;8.550;2023-04-24T16:49:14;8.50;;;4.70;;
10088;SDS011;51898;49.864;8.550;2023-04-24T16:52:15;5.27;;;4.77;;
10088;SDS011;51898;49.864;8.550;2023-04-24T16:55:17;5.10;;;4.60;;
10088;SDS011;51898;49.864;8.550;2023-04-24T16:58:19;5.97;;;5.40;;
10088;SDS011;51898;49.864;8.550;2023-04-24T17:01:20;6.43;;;4.60;;
10088;SDS011;51898;49.864;8.550;2023-04-24T17:04:22;5.30;;;4.60;;
10088;SDS011;51898;49.864;8.550;2023-04-24T17:07:24;5.43;;;4.70;;
10088;SDS011;51898;49.864;8.550;2023-04-24T17:10:26;5.57;;;5.00;;
10088;SDS011;51898;49.864;8.550;2023-04-24T17:13:29;6.53;;;5.27;;
10088;SDS011;51898;49.864;8.550;2023-04-24T17:16:30;5.43;;;4.83;;
10088;SDS011;51898;49.864;8.550;2023-04-24T17:19:32;6.30;;;5.20;;
10088;SDS011;51898;49.864;8.550;2023-04-24T17:22:34;6.30;;;5.70;;
10088;SDS011;51898;49.864;8.550;2023-04-24T17:25:35;7.40;;;6.13;;
10088;SDS011;51898;49.864;8.550;2023-04-24T17:28:37;8.90;;;6.60;;
10088;SDS011;51898;49.864;8.550;2023-04-24T17:31:39;10.97;;;8.60;;
10088;SDS011;51898;49.864;8.550;2023-04-24T17:34:41;8.27;;;6.70;;
10088;SDS011;51898;49.864;8.550;2023-04-24T17:37:43;8.37;;;6.37;;
10088;SDS011;51898;49.864;8.550;2023-04-24T17:40:44;6.90;;;5.77;;
10088;SDS011;51898;49.864;8.550;2023-04-24T17:43:46;7.57;;;6.67;;
10088;SDS011;51898;49.864;8.550;2023-04-24T17:46:48;12.93;;;7.27;;
10088;SDS011;51898;49.864;8.550;2023-04-24T17:49:49;7.83;;;6.17;;
10088;SDS011;51898;49.864;8.550;2023-04-24T17:52:52;8.93;;;7.27;;
10088;SDS011;51898;49.864;8.550;2023-04-24T17:55:53;10.30;;;6.80;;
10088;SDS011;51898;49.864;8.550;2023-04-24T17:58:59;8.77;;;6.47;;
10088;SDS011;51898;49.864;8.550;2023-04-24T18:02:00;5.83;;;4.90;;
10088;SDS011;51898;49.864;8.550;2023-04-24T18:05:02;6.03;;;5.20;;
10088;SDS011;51898;49.864;8.550;2023-04-24T18:08:04;6.50;;;4.70;;
10088;SDS011;51898;49.864;8.550;2023-04-24T18:11:06;6.37;;;5.13;;
10088;SDS011;51898;49.864;8.550;2023-04-24T18:14:08;6.83;;;5.47;;
10088;SDS011;51898;49.864;8.550;2023-04-24T18:17:10;7.80;;;5.50;;
10088;SDS011;51898;49.864;8.550;2023-04-24T18:20:12;6.83;;;5.60;;
10088;SDS011;51898;49.864;8.550;2023-04-24T18:23:16;9.03;;;6.80;;
10088;SDS011;51898;49.864;8.550;2023-04-24T18:26:17;7.17;;;6.10;;
10088;SDS011;51898;49.864;8.550;2023-04-24T18:29:19;6.80;;;6.07;;
10088;SDS011;51898;49.864;8.550;2023-04-24T18:32:21;7.77;;;5.90;;
10088;SDS011;51898;49.864;8.550;2023-04-24T18:35:23;6.53;;;5.50;;